createdAt,value
2019-05-30T00:02:47.206Z,63.30
2019-05-30T00:05:50.910Z,62.63
2019-05-30T00:08:54.620Z,62.99
2019-05-30T00:11:58.698Z,63.40
2019-05-30T00:15:05.866Z,63.86
2019-05-30T00:18:08.753Z,63.39
2019-05-30T00:21:12.460Z,63.85
2019-05-30T00:24:16.150Z,62.67
2019-05-30T00:27:20.172Z,63.67
2019-05-30T00:30:24.971Z,64.95
2019-05-30T00:33:29.383Z,63.89
2019-05-30T00:36:33.384Z,62.75
2019-05-30T00:39:37.112Z,63.68
2019-05-30T00:42:40.786Z,63.71
2019-05-30T00:45:44.479Z,64.40
2019-05-30T00:48:48.186Z,64.48
2019-05-30T00:51:51.906Z,65.00
2019-05-30T00:54:56.461Z,65.12
2019-05-30T00:58:00.620Z,64.60
2019-05-30T01:01:05.164Z,65.07
2019-05-30T01:04:09.697Z,64.58
2019-05-30T01:07:14.045Z,64.35
2019-05-30T01:10:17.747Z,65.14
2019-05-30T01:13:21.536Z,64.69
2019-05-30T01:16:25.249Z,65.29
2019-05-30T01:19:28.986Z,64.45
2019-05-30T01:22:32.775Z,64.23
2019-05-30T01:25:36.880Z,65.38
2019-05-30T01:28:40.987Z,65.21
2019-05-30T01:31:45.022Z,64.58
2019-05-30T01:34:49.063Z,64.76
2019-05-30T01:37:52.770Z,65.73
2019-05-30T01:40:57.623Z,65.18
2019-05-30T01:44:01.957Z,64.64
2019-05-30T01:47:06.380Z,64.91
2019-05-30T01:50:10.960Z,63.23
2019-05-30T01:53:14.639Z,64.50
2019-05-30T01:56:18.641Z,65.36
2019-05-30T01:59:22.348Z,63.64
2019-05-30T02:02:26.038Z,64.88
2019-05-30T02:05:29.742Z,65.01
2019-05-30T02:08:33.438Z,64.74
2019-05-30T02:11:37.460Z,64.85
2019-05-30T02:14:41.533Z,65.34
2019-05-30T02:17:45.535Z,65.77
2019-05-30T02:20:49.248Z,64.95
2019-05-30T02:23:53.046Z,65.06
2019-05-30T02:26:57.039Z,65.72
2019-05-30T02:30:03.262Z,64.67
2019-05-30T02:33:07.347Z,64.80
2019-05-30T02:36:12.620Z,64.42
2019-05-30T02:39:16.894Z,63.59
2019-05-30T02:42:21.026Z,65.63
2019-05-30T02:45:25.007Z,65.13
2019-05-30T02:48:28.952Z,65.55
2019-05-30T02:51:32.662Z,65.92
2019-05-30T02:54:36.935Z,65.00
2019-05-30T02:57:40.725Z,64.06
2019-05-30T03:00:44.466Z,63.43
2019-05-30T03:03:48.154Z,64.80
2019-05-30T03:06:51.992Z,65.37
2019-05-30T03:09:55.842Z,65.71
2019-05-30T03:12:59.616Z,65.57
2019-05-30T03:16:04.583Z,65.87
2019-05-30T03:19:11.049Z,65.62
2019-05-30T03:22:14.833Z,64.00
2019-05-30T03:25:19.016Z,64.98
2019-05-30T03:28:23.065Z,63.15
2019-05-30T03:31:30.317Z,62.13
2019-05-30T03:34:34.378Z,63.17
2019-05-30T03:37:38.114Z,62.16
2019-05-30T03:40:42.731Z,63.84
2019-05-30T03:43:46.675Z,64.49
2019-05-30T03:46:53.892Z,63.26
2019-05-30T03:50:00.402Z,62.81
2019-05-30T03:53:04.777Z,63.70
2019-05-30T03:56:14.144Z,60.44
2019-05-30T03:59:28.220Z,62.35
2019-05-30T04:02:56.295Z,62.23
2019-05-30T04:05:51.808Z,61.09
2019-05-30T04:08:59.813Z,62.06
2019-05-30T04:12:20.002Z,60.53
2019-05-30T04:15:31.522Z,61.93
2019-05-30T04:18:35.278Z,62.94
2019-05-30T04:21:39.220Z,60.83
2019-05-30T04:24:42.915Z,62.87
2019-05-30T04:27:47.162Z,60.30
2019-05-30T04:30:51.356Z,59.93
2019-05-30T04:33:55.334Z,60.00
2019-05-30T04:36:59.068Z,60.86
2019-05-30T04:40:03.015Z,59.95
2019-05-30T04:43:07.017Z,62.16
2019-05-30T04:46:12.185Z,60.86
2019-05-30T04:49:16.920Z,62.21
2019-05-30T04:52:24.745Z,62.33
2019-05-30T04:55:27.376Z,63.31
2019-05-30T04:58:31.674Z,62.79
2019-05-30T05:01:35.570Z,63.83
2019-05-30T05:04:39.582Z,61.99
2019-05-30T05:07:43.308Z,61.44
2019-05-30T05:10:47.013Z,61.97
2019-05-30T05:13:50.758Z,62.69
2019-05-30T05:16:54.746Z,62.43
2019-05-30T05:19:58.453Z,61.29
2019-05-30T05:23:02.177Z,62.18
2019-05-30T05:26:05.949Z,61.01
2019-05-30T05:29:09.689Z,61.44
2019-05-30T05:32:14.072Z,62.03
2019-05-30T05:35:18.720Z,61.43
2019-05-30T05:38:22.512Z,62.31
2019-05-30T05:41:26.278Z,63.09
2019-05-30T05:44:30.261Z,62.86
2019-05-30T05:47:34.541Z,63.22
2019-05-30T05:50:38.568Z,61.42
2019-05-30T05:53:42.860Z,62.59
2019-05-30T05:56:46.817Z,63.29
2019-05-30T05:59:50.536Z,61.24
2019-05-30T06:02:54.233Z,61.33
2019-05-30T06:05:57.942Z,61.70
2019-05-30T06:09:01.644Z,62.97
2019-05-30T06:12:05.598Z,61.72
2019-05-30T06:15:09.408Z,60.98
2019-05-30T06:18:13.104Z,61.96
2019-05-30T06:21:17.269Z,61.58
2019-05-30T06:24:21.598Z,61.81
2019-05-30T06:27:26.139Z,62.80
2019-05-30T06:30:29.895Z,61.83
2019-05-30T06:33:33.953Z,61.80
2019-05-30T06:36:38.070Z,60.92
2019-05-30T06:39:42.085Z,61.40
2019-05-30T06:42:45.814Z,60.76
2019-05-30T06:45:49.889Z,60.72
2019-05-30T06:48:53.592Z,60.92
2019-05-30T06:51:57.314Z,60.55
2019-05-30T06:55:01.340Z,60.58
2019-05-30T06:58:05.451Z,61.02
2019-05-30T07:01:09.179Z,60.06
2019-05-30T07:04:13.381Z,60.57
2019-05-30T07:07:17.843Z,61.38
2019-05-30T07:10:22.715Z,60.89
2019-05-30T07:13:27.214Z,60.73
2019-05-30T07:16:31.540Z,60.26
2019-05-30T07:19:37.741Z,59.52
2019-05-30T07:22:40.770Z,59.69
2019-05-30T07:25:44.781Z,60.48
2019-05-30T07:28:48.759Z,59.78
2019-05-30T07:31:52.731Z,59.08
2019-05-30T07:35:06.199Z,60.34
2019-05-30T07:38:02.260Z,59.47
2019-05-30T07:41:06.121Z,60.71
2019-05-30T07:44:09.842Z,60.99
2019-05-30T07:47:13.564Z,59.97
2019-05-30T07:50:17.996Z,61.61
2019-05-30T07:53:21.962Z,61.89
2019-05-30T07:56:26.923Z,59.98
2019-05-30T07:59:30.735Z,59.64
2019-05-30T08:02:35.810Z,60.55
2019-05-30T08:05:39.791Z,60.16
2019-05-30T08:08:43.541Z,59.53
2019-05-30T08:11:47.620Z,60.41
2019-05-30T08:14:51.664Z,59.75
2019-05-30T08:17:55.706Z,59.81
2019-05-30T08:20:59.750Z,60.45
2019-05-30T08:24:03.845Z,59.05
2019-05-30T08:27:07.583Z,58.74
2019-05-30T08:30:13.253Z,58.51
2019-05-30T08:33:17.366Z,60.47
2019-05-30T08:36:21.364Z,59.40
2019-05-30T08:39:25.385Z,59.40
2019-05-30T08:42:29.609Z,58.13
2019-05-30T08:45:33.869Z,61.20
2019-05-30T08:48:38.325Z,61.20
2019-05-30T08:51:42.088Z,60.90
2019-05-30T08:54:45.832Z,59.79
2019-05-30T08:57:50.864Z,60.95
2019-05-30T09:00:54.586Z,60.95
2019-05-30T09:03:58.381Z,61.46
2019-05-30T09:07:02.738Z,61.46
2019-05-30T09:10:06.637Z,64.11
2019-05-30T09:13:10.381Z,64.11
2019-05-30T09:16:14.344Z,65.69
2019-05-30T09:19:18.115Z,68.24
2019-05-30T09:22:22.209Z,69.32
2019-05-30T09:25:26.615Z,67.50
2019-05-30T09:28:30.353Z,67.90
2019-05-30T09:31:34.060Z,67.90
2019-05-30T09:34:38.344Z,67.80
2019-05-30T09:37:44.154Z,67.96
2019-05-30T09:40:49.668Z,68.14
2019-05-30T09:43:53.344Z,66.37
2019-05-30T09:46:57.331Z,65.96
2019-05-30T09:50:03.819Z,66.12
2019-05-30T09:53:06.506Z,66.12
2019-05-30T09:56:10.460Z,65.58
2019-05-30T09:59:14.169Z,65.58
2019-05-30T10:02:17.977Z,68.92
2019-05-30T10:05:24.437Z,68.92
2019-05-30T10:08:27.291Z,68.77
2019-05-30T10:11:31.546Z,69.10
2019-05-30T10:14:35.752Z,69.99
2019-05-30T10:17:39.463Z,69.99
2019-05-30T10:20:44.442Z,69.58
2019-05-30T10:23:49.410Z,70.86
2019-05-30T10:26:53.273Z,72.09
2019-05-30T10:29:57.542Z,72.79
2019-05-30T10:33:01.674Z,73.17
2019-05-30T10:36:06.091Z,73.46
2019-05-30T10:39:09.903Z,73.27
2019-05-30T10:42:13.883Z,73.55
2019-05-30T10:45:19.968Z,73.96
2019-05-30T10:48:23.757Z,73.54
2019-05-30T10:51:27.889Z,73.71
2019-05-30T10:54:31.621Z,73.76
2019-05-30T10:57:35.414Z,73.35
2019-05-30T11:00:48.994Z,73.84
2019-05-30T11:03:54.824Z,72.45
2019-05-30T11:07:23.795Z,71.89
2019-05-30T11:10:36.274Z,71.94
2019-05-30T11:13:40.656Z,71.97
2019-05-30T11:16:44.625Z,71.76
2019-05-30T11:19:49.982Z,71.74
2019-05-30T11:22:54.628Z,71.15
2019-05-30T11:25:58.895Z,71.12
2019-05-30T11:29:02.744Z,71.96
2019-05-30T11:32:06.443Z,70.08
2019-05-30T11:35:10.313Z,70.08
2019-05-30T11:38:14.014Z,69.76
2019-05-30T11:41:17.944Z,70.05
2019-05-30T11:44:21.669Z,69.29
2019-05-30T11:47:25.391Z,69.29
2019-05-30T11:50:29.783Z,70.27
2019-05-30T11:53:33.560Z,69.85
2019-05-30T11:56:37.241Z,69.07
2019-05-30T11:59:40.961Z,69.07
2019-05-30T12:02:45.144Z,69.75
2019-05-30T12:05:48.918Z,69.05
2019-05-30T12:08:52.824Z,68.86
2019-05-30T12:11:57.415Z,68.24
2019-05-30T12:15:01.650Z,67.59
2019-05-30T12:18:05.608Z,68.20
2019-05-30T12:21:09.325Z,68.46
2019-05-30T12:24:13.020Z,68.65
2019-05-30T12:27:16.720Z,68.47
2019-05-30T12:30:22.375Z,67.96
2019-05-30T12:33:26.083Z,69.17
2019-05-30T12:36:29.777Z,68.33
2019-05-30T12:39:33.607Z,67.32
2019-05-30T12:42:37.916Z,67.44
2019-05-30T12:45:41.993Z,67.05
2019-05-30T12:48:45.965Z,67.87
2019-05-30T12:51:49.680Z,67.71
2019-05-30T12:54:54.444Z,67.30
2019-05-30T12:57:58.628Z,67.86
2019-05-30T13:01:02.964Z,67.59
2019-05-30T13:04:07.367Z,66.69
2019-05-30T13:07:11.224Z,67.47
2019-05-30T13:10:17.077Z,67.71
2019-05-30T13:13:20.802Z,69.77
2019-05-30T13:16:24.537Z,70.60
2019-05-30T13:19:28.241Z,72.47
2019-05-30T13:22:31.999Z,72.58
2019-05-30T13:25:35.865Z,73.59
2019-05-30T13:28:39.551Z,73.87
2019-05-30T13:31:43.540Z,74.35
2019-05-30T13:34:47.263Z,75.42
2019-05-30T13:37:50.985Z,77.60
2019-05-30T13:40:54.681Z,79.26
2019-05-30T13:43:58.375Z,80.91
2019-05-30T13:47:02.548Z,79.86
2019-05-30T13:50:11.285Z,80.35
2019-05-30T13:53:12.717Z,81.70
2019-05-30T13:56:16.444Z,79.31
2019-05-30T13:59:20.151Z,80.19
2019-05-30T14:02:23.892Z,79.77
2019-05-30T14:05:27.664Z,79.58
2019-05-30T14:08:41.158Z,80.22
2019-05-30T14:11:37.344Z,80.07
2019-05-30T14:14:41.374Z,79.17
2019-05-30T14:17:45.159Z,77.56
2019-05-30T14:20:49.163Z,77.09
2019-05-30T14:23:52.872Z,75.95
2019-05-30T14:26:56.827Z,74.72
2019-05-30T14:30:00.870Z,76.36
2019-05-30T14:33:05.962Z,75.93
2019-05-30T14:36:11.384Z,75.02
2019-05-30T14:39:15.603Z,75.56
2019-05-30T14:42:19.328Z,73.96
2019-05-30T14:45:23.175Z,74.03
2019-05-30T14:48:27.256Z,73.37
2019-05-30T14:51:30.955Z,74.01
2019-05-30T14:54:34.655Z,74.34
2019-05-30T14:57:38.786Z,74.54
2019-05-30T15:03:46.597Z,72.95
2019-05-30T15:06:50.543Z,72.88
2019-05-30T15:09:54.272Z,72.93
2019-05-30T15:12:58.320Z,73.39
2019-05-30T15:16:02.110Z,73.48
2019-05-30T15:19:06.377Z,71.63
2019-05-30T15:22:14.681Z,72.34
2019-05-30T15:25:18.096Z,73.44
2019-05-30T15:28:22.222Z,72.61
2019-05-30T15:31:25.933Z,73.30
2019-05-30T15:34:30.275Z,72.92
2019-05-30T15:37:34.277Z,71.91
2019-05-30T15:40:38.001Z,72.72
2019-05-30T15:43:42.019Z,72.71
2019-05-30T15:46:46.039Z,73.00
2019-05-30T15:49:52.127Z,72.69
2019-05-30T15:52:55.545Z,72.12
2019-05-30T15:55:59.252Z,71.95
2019-05-30T15:59:03.233Z,72.85
2019-05-30T16:02:07.195Z,73.12
2019-05-30T16:05:12.594Z,72.65
2019-05-30T16:08:16.787Z,72.71
2019-05-30T16:11:21.249Z,73.50
2019-05-30T16:14:25.370Z,72.63
2019-05-30T16:17:29.169Z,72.11
2019-05-30T16:20:32.899Z,70.82
2019-05-30T16:23:36.750Z,71.65
2019-05-30T16:26:40.673Z,71.67
2019-05-30T16:29:44.770Z,71.61
2019-05-30T16:32:48.590Z,71.54
2019-05-30T16:35:52.373Z,71.18
2019-05-30T16:38:56.167Z,71.77
2019-05-30T16:41:59.987Z,71.31
2019-05-30T16:45:04.219Z,70.72
2019-05-30T16:48:08.052Z,71.50
2019-05-30T16:51:11.865Z,70.98
2019-05-30T16:54:17.185Z,71.50
2019-05-30T16:57:20.918Z,71.15
2019-05-30T17:00:25.159Z,71.30
2019-05-30T17:03:28.878Z,71.18
2019-05-30T17:06:32.580Z,71.24
2019-05-30T17:09:36.553Z,71.57
2019-05-30T17:12:40.272Z,71.12
2019-05-30T17:15:43.988Z,71.50
2019-05-30T17:18:47.980Z,71.10
2019-05-30T17:21:52.359Z,71.53
2019-05-30T17:24:56.070Z,71.64
2019-05-30T17:28:00.027Z,71.73
2019-05-30T17:31:04.087Z,71.80
2019-05-30T17:34:08.049Z,71.98
2019-05-30T17:37:12.099Z,71.49
2019-05-30T17:40:16.060Z,71.73
2019-05-30T17:43:20.979Z,71.67
2019-05-30T17:46:25.730Z,71.90
2019-05-30T17:49:30.077Z,71.81
2019-05-30T17:52:33.888Z,72.09
2019-05-30T17:55:37.619Z,72.09
2019-05-30T17:58:41.938Z,72.62
2019-05-30T18:01:45.669Z,72.26
2019-05-30T18:04:49.363Z,73.28
2019-05-30T18:07:53.682Z,72.47
2019-05-30T18:10:57.425Z,72.21
2019-05-30T18:14:01.115Z,72.63
2019-05-30T18:17:05.267Z,72.99
2019-05-30T18:20:10.416Z,72.36
2019-05-30T18:23:14.131Z,72.69
2019-05-30T18:26:17.845Z,72.48
2019-05-30T18:29:21.790Z,73.10
2019-05-30T18:32:25.942Z,72.70
2019-05-30T18:35:30.515Z,72.89
2019-05-30T18:38:34.994Z,72.96
2019-05-30T18:41:38.723Z,73.20
2019-05-30T18:44:42.431Z,73.62
2019-05-30T18:47:46.767Z,73.95
2019-05-30T18:50:50.475Z,74.44
2019-05-30T18:53:54.482Z,74.95
2019-05-30T18:56:58.224Z,74.65
2019-05-30T19:00:02.821Z,74.60
2019-05-30T19:03:07.261Z,74.15
2019-05-30T19:06:11.318Z,73.92
2019-05-30T19:09:15.063Z,74.04
2019-05-30T19:12:18.842Z,74.60
2019-05-30T19:15:22.960Z,74.39
2019-05-30T19:18:27.277Z,74.53
2019-05-30T19:21:32.187Z,74.99
2019-05-30T19:24:36.482Z,74.75
2019-05-30T19:27:40.786Z,75.08
2019-05-30T19:30:44.884Z,74.95
2019-05-30T19:33:48.928Z,75.27
2019-05-30T19:36:52.784Z,75.28
2019-05-30T19:39:56.502Z,75.07
2019-05-30T19:43:01.087Z,75.26
2019-05-30T19:46:04.942Z,75.77
2019-05-30T19:49:09.008Z,75.34
2019-05-30T19:52:12.964Z,75.87
2019-05-30T19:55:17.063Z,75.91
2019-05-30T19:58:20.772Z,75.81
2019-05-30T20:01:24.468Z,76.02
2019-05-30T20:04:28.189Z,75.83
2019-05-30T20:07:32.446Z,76.38
2019-05-30T20:10:37.232Z,75.75
2019-05-30T20:13:41.337Z,75.98
2019-05-30T20:16:45.223Z,76.22
2019-05-30T20:19:48.973Z,76.07
2019-05-30T20:22:53.045Z,75.97
2019-05-30T20:25:56.856Z,76.25
2019-05-30T20:29:00.909Z,76.08
2019-05-30T20:32:04.758Z,76.22
2019-05-30T20:35:09.074Z,76.62
2019-05-30T20:38:12.791Z,77.10
2019-05-30T20:41:16.488Z,77.58
2019-05-30T20:44:20.682Z,77.73
2019-05-30T20:47:24.475Z,78.04
2019-05-30T20:50:28.331Z,77.77
2019-05-30T20:53:32.067Z,78.02
2019-05-30T20:56:35.771Z,77.90
2019-05-30T20:59:40.650Z,78.05
2019-05-30T21:02:44.460Z,78.33
2019-05-30T21:05:48.752Z,78.24
2019-05-30T21:08:52.558Z,78.16
2019-05-30T21:11:56.961Z,78.31
2019-05-30T21:15:02.790Z,79.02
2019-05-30T21:18:07.309Z,78.90
2019-05-30T21:21:11.027Z,79.04
2019-05-30T21:24:14.743Z,79.46
2019-05-30T21:27:18.465Z,79.53
2019-05-30T21:30:22.551Z,79.94
2019-05-30T21:33:26.824Z,80.14
2019-05-30T21:36:30.839Z,80.14
2019-05-30T21:39:34.850Z,79.91
2019-05-30T21:42:55.330Z,80.01
2019-05-30T21:45:44.678Z,80.13
2019-05-30T21:48:49.067Z,80.02
2019-05-30T21:51:53.439Z,79.97
2019-05-30T21:54:57.162Z,79.89
2019-05-30T21:58:01.159Z,80.02
2019-05-30T22:01:25.571Z,80.05
2019-05-30T22:04:29.362Z,80.23
2019-05-30T22:07:33.078Z,80.59
2019-05-30T22:10:37.132Z,80.62
2019-05-30T22:13:41.504Z,81.08
2019-05-30T22:16:45.955Z,80.97
2019-05-30T22:19:50.058Z,81.52
2019-05-30T22:22:54.155Z,81.37
2019-05-30T22:25:58.166Z,82.10
2019-05-30T22:29:01.884Z,81.97
2019-05-30T22:32:05.624Z,81.97
2019-05-30T22:35:09.519Z,81.79
2019-05-30T22:38:13.249Z,81.79
2019-05-30T22:41:16.975Z,81.56
2019-05-30T22:44:20.705Z,81.39
2019-05-30T22:47:24.430Z,81.13
2019-05-30T22:50:28.229Z,81.13
2019-05-30T22:53:32.017Z,81.16
2019-05-30T22:56:36.046Z,81.16
2019-05-30T22:59:39.789Z,81.20
2019-05-30T23:02:43.600Z,81.32
2019-05-30T23:05:47.345Z,81.11
2019-05-30T23:08:52.603Z,81.36
2019-05-30T23:11:56.327Z,81.35
2019-05-30T23:15:00.041Z,81.23
2019-05-30T23:18:03.843Z,81.59
2019-05-30T23:21:07.864Z,81.59
2019-05-30T23:24:11.638Z,81.71
2019-05-30T23:27:16.200Z,81.71
2019-05-30T23:30:20.891Z,81.99
2019-05-30T23:33:24.613Z,81.99
2019-05-30T23:36:28.370Z,81.93
2019-05-30T23:39:32.093Z,82.10
2019-05-30T23:42:35.833Z,81.91
2019-05-30T23:45:39.579Z,82.45
2019-05-30T23:48:43.381Z,82.33
2019-05-30T23:51:47.094Z,82.13
2019-05-30T23:54:52.146Z,82.13
2019-05-30T23:57:56.615Z,82.52
